createdAt,value
2023-04-27T00:03:49.285Z,1.00
2023-04-27T00:08:53.031Z,1.40
2023-04-27T00:13:57.412Z,1.60
2023-04-27T00:19:02.619Z,1.70
2023-04-27T00:24:06.864Z,1.70
2023-04-27T00:29:10.488Z,2.20
2023-04-27T00:34:17.600Z,2.00
2023-04-27T00:39:24.820Z,2.00
2023-04-27T00:44:29.343Z,2.10
2023-04-27T00:49:34.604Z,2.40
2023-04-27T00:54:38.593Z,2.57
2023-04-27T00:59:42.291Z,3.00
2023-04-27T01:04:47.609Z,2.27
2023-04-27T01:09:51.492Z,3.07
2023-04-27T01:14:55.240Z,3.00
2023-04-27T01:20:00.495Z,3.00
2023-04-27T01:25:06.611Z,3.20
2023-04-27T01:30:10.445Z,4.20
2023-04-27T01:35:14.201Z,3.80
2023-04-27T01:40:19.564Z,4.17
2023-04-27T01:45:24.311Z,4.43
2023-04-27T01:50:28.265Z,4.47
2023-04-27T01:55:33.364Z,4.90
2023-04-27T02:00:38.655Z,4.50
2023-04-27T02:05:43.559Z,4.53
2023-04-27T02:10:48.768Z,4.90
2023-04-27T02:15:56.225Z,5.03
2023-04-27T02:21:00.214Z,5.27
2023-04-27T02:26:05.445Z,5.30
2023-04-27T02:31:09.250Z,5.40
2023-04-27T02:36:12.864Z,5.23
2023-04-27T02:41:17.993Z,5.03
2023-04-27T02:46:21.889Z,5.40
2023-04-27T02:51:25.745Z,5.20
2023-04-27T02:56:31.310Z,5.33
2023-04-27T03:01:35.302Z,5.30
2023-04-27T03:06:39.150Z,5.30
2023-04-27T03:11:44.346Z,5.17
2023-04-27T03:16:48.276Z,5.30
2023-04-27T03:21:52.131Z,5.73
2023-04-27T03:26:57.361Z,5.60
2023-04-27T03:32:01.188Z,5.50
2023-04-27T03:37:04.991Z,6.30
2023-04-27T03:42:10.132Z,5.60
2023-04-27T03:47:13.871Z,5.93
2023-04-27T03:52:18.736Z,5.80
2023-04-27T03:57:24.551Z,6.43
2023-04-27T04:02:28.435Z,6.20
2023-04-27T04:07:32.268Z,6.07
2023-04-27T04:12:37.839Z,6.23
2023-04-27T04:17:41.670Z,6.33
2023-04-27T04:22:45.531Z,6.30
2023-04-27T04:27:51.177Z,6.37
2023-04-27T04:32:55.466Z,6.43
2023-04-27T04:37:59.213Z,6.30
2023-04-27T04:43:04.742Z,6.47
2023-04-27T04:48:08.915Z,6.67
2023-04-27T04:53:12.728Z,6.73
2023-04-27T04:58:18.286Z,7.87
2023-04-27T05:03:22.175Z,6.60
2023-04-27T05:08:25.930Z,6.97
2023-04-27T05:13:31.305Z,6.23
2023-04-27T05:18:35.211Z,6.13
2023-04-27T05:23:39.075Z,6.43
2023-04-27T05:28:44.543Z,6.80
2023-04-27T05:33:48.263Z,6.00
2023-04-27T05:38:52.051Z,6.53
2023-04-27T05:43:57.433Z,6.60
2023-04-27T05:49:01.776Z,6.30
2023-04-27T05:54:05.854Z,5.87
2023-04-27T05:59:11.228Z,6.27
2023-04-27T06:04:15.327Z,5.30
2023-04-27T06:09:19.220Z,5.80
2023-04-27T06:14:24.559Z,5.70
2023-04-27T06:19:28.178Z,5.80
2023-04-27T06:24:31.877Z,4.80
2023-04-27T06:29:37.068Z,5.23
2023-04-27T06:34:40.798Z,4.53
2023-04-27T06:39:46.806Z,5.77
2023-04-27T06:44:55.333Z,4.10
2023-04-27T06:49:59.290Z,4.00
2023-04-27T06:55:03.476Z,3.80
2023-04-27T07:00:13.628Z,3.40
2023-04-27T07:05:17.575Z,3.93
2023-04-27T07:10:21.456Z,3.67
2023-04-27T07:15:27.197Z,4.50
2023-04-27T07:20:31.287Z,3.80
2023-04-27T07:25:35.955Z,3.60
2023-04-27T07:30:42.055Z,4.23
2023-04-27T07:35:45.860Z,3.10
2023-04-27T07:40:49.920Z,3.40
2023-04-27T07:45:55.817Z,3.70
2023-04-27T07:51:00.143Z,4.90
2023-04-27T07:56:04.410Z,3.83
2023-04-27T08:01:09.707Z,4.13
2023-04-27T08:06:13.971Z,3.73
2023-04-27T08:11:18.187Z,3.03
2023-04-27T08:16:23.628Z,3.60
2023-04-27T08:21:28.788Z,2.30
2023-04-27T08:26:32.849Z,2.43
2023-04-27T08:31:38.230Z,2.37
2023-04-27T08:36:42.183Z,1.90
2023-04-27T08:41:46.540Z,2.30
2023-04-27T08:46:52.719Z,2.50
2023-04-27T08:51:57.165Z,2.20
2023-04-27T08:57:01.182Z,2.20
2023-04-27T09:02:07.388Z,2.37
2023-04-27T09:07:15.692Z,2.47
2023-04-27T09:12:21.217Z,2.73
2023-04-27T09:17:28.798Z,2.43
2023-04-27T09:22:32.754Z,2.30
2023-04-27T09:27:36.658Z,2.50
2023-04-27T09:32:46.888Z,2.40
2023-04-27T09:37:56.474Z,2.67
2023-04-27T09:43:02.946Z,2.27
2023-04-27T09:48:09.080Z,2.10
2023-04-27T09:53:14.264Z,2.70
2023-04-27T09:58:45.218Z,2.47
2023-04-27T10:04:04.029Z,2.20
2023-04-27T10:09:09.135Z,2.40
2023-04-27T10:14:19.105Z,2.30
2023-04-27T10:19:25.394Z,4.37
2023-04-27T10:24:40.397Z,2.20
2023-04-27T10:29:46.275Z,2.97
2023-04-27T10:34:52.812Z,2.47
2023-04-27T10:40:06.681Z,2.20
2023-04-27T10:45:12.462Z,2.23
2023-04-27T10:50:18.823Z,2.30
2023-04-27T10:55:25.298Z,3.00
2023-04-27T11:00:30.694Z,2.17
2023-04-27T11:05:36.417Z,2.07
2023-04-27T11:10:41.857Z,2.57
2023-04-27T11:15:47.613Z,2.57
2023-04-27T11:20:55.137Z,2.20
2023-04-27T11:25:59.736Z,2.47
2023-04-27T11:31:04.698Z,2.77
2023-04-27T11:36:19.802Z,2.17
2023-04-27T11:41:24.498Z,2.67
2023-04-27T11:46:28.662Z,2.47
2023-04-27T11:51:34.822Z,2.23
2023-04-27T11:56:40.885Z,2.53
2023-04-27T12:01:44.984Z,2.67
2023-04-27T12:06:50.327Z,3.03
2023-04-27T12:11:55.005Z,2.90
2023-04-27T12:16:59.205Z,2.23
2023-04-27T12:22:04.954Z,2.10
2023-04-27T12:27:08.840Z,2.50
2023-04-27T12:32:12.682Z,2.50
2023-04-27T12:37:17.993Z,2.60
2023-04-27T12:42:24.668Z,2.03
2023-04-27T12:47:49.750Z,3.83
2023-04-27T12:52:55.212Z,2.93
2023-04-27T12:57:59.133Z,2.70
2023-04-27T13:03:03.338Z,2.17
2023-04-27T13:08:09.266Z,2.70
2023-04-27T13:13:13.524Z,2.17
2023-04-27T13:18:17.518Z,2.17
2023-04-27T13:23:22.869Z,2.20
2023-04-27T13:28:26.615Z,2.53
2023-04-27T13:33:30.731Z,2.13
2023-04-27T13:38:36.373Z,1.80
2023-04-27T13:43:40.470Z,1.80
2023-04-27T13:48:44.558Z,2.00
2023-04-27T13:53:49.809Z,2.10
2023-04-27T13:58:53.536Z,2.23
2023-04-27T14:03:57.506Z,2.20
2023-04-27T14:09:02.775Z,2.37
2023-04-27T14:14:06.881Z,2.40
2023-04-27T14:19:10.769Z,2.20
2023-04-27T14:24:15.991Z,2.47
2023-04-27T14:29:20.158Z,2.90
2023-04-27T14:34:24.563Z,2.53
2023-04-27T14:39:29.960Z,2.37
2023-04-27T14:44:35.366Z,2.87
2023-04-27T14:49:39.164Z,2.67
2023-04-27T14:54:44.617Z,2.90
2023-04-27T14:59:49.545Z,3.57
2023-04-27T15:04:53.635Z,2.90
2023-04-27T15:09:59.010Z,2.70
2023-04-27T15:15:02.811Z,3.70
2023-04-27T15:20:10.996Z,3.50
2023-04-27T15:25:16.279Z,3.13
2023-04-27T15:30:20.177Z,3.43
2023-04-27T15:35:24.136Z,2.50
2023-04-27T15:40:29.291Z,3.03
2023-04-27T15:45:33.206Z,2.60
2023-04-27T15:50:37.135Z,3.60
2023-04-27T15:55:42.530Z,4.50
2023-04-27T16:00:46.453Z,4.40
2023-04-27T16:05:51.517Z,4.30
2023-04-27T16:10:56.728Z,4.37
2023-04-27T16:16:00.658Z,4.10
2023-04-27T16:21:04.951Z,4.50
2023-04-27T16:26:10.264Z,4.40
2023-04-27T16:31:14.361Z,3.63
2023-04-27T16:36:18.127Z,4.37
2023-04-27T16:41:24.565Z,4.20
2023-04-27T16:46:28.597Z,4.50
2023-04-27T16:51:32.652Z,4.10
2023-04-27T16:56:38.124Z,4.47
2023-04-27T17:01:42.409Z,4.90
2023-04-27T17:06:48.776Z,4.53
2023-04-27T17:11:53.954Z,5.77
2023-04-27T17:16:57.585Z,5.40
2023-04-27T17:22:01.270Z,5.30
2023-04-27T17:27:07.147Z,6.50
2023-04-27T17:32:11.283Z,5.20
2023-04-27T17:37:15.858Z,5.73
2023-04-27T17:42:22.338Z,5.60
2023-04-27T17:47:27.079Z,5.30
2023-04-27T17:52:31.203Z,5.90
2023-04-27T17:57:36.430Z,5.30
2023-04-27T18:02:42.579Z,6.57
2023-04-27T18:07:47.864Z,6.13
2023-04-27T18:12:53.320Z,5.30
2023-04-27T18:17:57.173Z,6.07
2023-04-27T18:23:01.119Z,5.97
2023-04-27T18:28:06.557Z,6.93
2023-04-27T18:33:10.391Z,7.40
2023-04-27T18:38:14.143Z,6.67
2023-04-27T18:43:19.255Z,6.00
2023-04-27T18:48:22.984Z,6.80
2023-04-27T18:53:28.268Z,6.07
2023-04-27T18:58:33.680Z,5.87
2023-04-27T19:03:37.660Z,5.20
2023-04-27T19:08:41.518Z,5.00
2023-04-27T19:13:46.686Z,4.87
2023-04-27T19:18:50.493Z,4.27
2023-04-27T19:23:54.221Z,3.63
2023-04-27T19:28:59.377Z,3.53
2023-04-27T19:34:18.347Z,2.93
2023-04-27T19:39:22.104Z,3.10
2023-04-27T19:44:28.574Z,2.87
2023-04-27T19:49:33.767Z,2.83
2023-04-27T19:54:38.492Z,2.50
2023-04-27T19:59:43.654Z,2.60
2023-04-27T20:04:47.655Z,2.63
2023-04-27T20:09:51.613Z,2.40
2023-04-27T20:14:58.062Z,2.60
2023-04-27T20:20:01.788Z,2.80
2023-04-27T20:25:08.483Z,2.67
2023-04-27T20:30:14.148Z,3.17
2023-04-27T20:35:17.890Z,2.67
2023-04-27T20:40:21.702Z,2.97
2023-04-27T20:45:26.907Z,2.90
2023-04-27T20:50:31.157Z,2.60
2023-04-27T20:55:34.946Z,3.13
2023-04-27T21:00:40.187Z,2.77
2023-04-27T21:05:44.613Z,3.20
2023-04-27T21:10:48.401Z,3.17
2023-04-27T21:15:53.633Z,2.97
2023-04-27T21:20:57.414Z,2.90
2023-04-27T21:26:01.195Z,2.97
2023-04-27T21:31:06.714Z,2.90
2023-04-27T21:36:10.889Z,2.80
2023-04-27T21:41:15.856Z,3.33
2023-04-27T21:46:21.777Z,3.30
2023-04-27T21:51:25.533Z,3.33
2023-04-27T21:56:29.331Z,2.83
2023-04-27T22:01:34.519Z,3.40
2023-04-27T22:06:41.552Z,2.80
2023-04-27T22:11:45.232Z,2.77
2023-04-27T22:16:50.776Z,2.57
2023-04-27T22:21:54.792Z,2.97
2023-04-27T22:26:59.661Z,3.07
2023-04-27T22:32:05.437Z,2.97
2023-04-27T22:37:09.357Z,2.80
2023-04-27T22:42:13.155Z,2.80
2023-04-27T22:47:18.377Z,2.90
2023-04-27T22:52:24.699Z,3.17
2023-04-27T22:57:28.383Z,3.17
2023-04-27T23:02:34.159Z,3.17
2023-04-27T23:07:38.168Z,3.10
2023-04-27T23:12:41.947Z,2.97
2023-04-27T23:17:47.057Z,3.33
2023-04-27T23:22:50.995Z,2.80
2023-04-27T23:27:54.642Z,3.50
2023-04-27T23:32:59.911Z,3.23
2023-04-27T23:38:03.622Z,3.20
2023-04-27T23:43:07.684Z,3.87
2023-04-27T23:48:12.999Z,3.57
2023-04-27T23:53:16.780Z,3.23
2023-04-27T23:58:20.742Z,3.47
